Time;durP1;ratioP1;P1;durP2;ratioP2;P2;SDS_P1;SDS_P2;PMS_P1;PMS_P2;Temp;Humidity;BMP_temperature;BMP_pressure;BME280_temperature;BME280_humidity;BME280_pressure;Samples;Min_cycle;Max_cycle;Signal;HPM_P1;HPM_P2
2023/01/17 00:01:59;;;;;;;;;;;19.10;39.80;;;;;;5054854;28;19925;-61
2023/01/17 00:09:55;;;;;;;;;;;19.00;39.70;;;;;;5077325;28;19932;-61
2023/01/17 00:12:23;;;;;;;;;;;19.00;39.70;;;;;;5049772;28;20019;-61
2023/01/17 00:14:49;;;;;;;;;;;19.00;39.70;;;;;;5054359;28;20395;-61
2023/01/17 00:17:18;;;;;;;;;;;19.00;39.70;;;;;;5049896;28;19975;-61
2023/01/17 01:34:21;;;;;;;;;;;18.70;39.40;;;;;;5049812;28;19928;-61
2023/01/17 01:36:48;;;;;;;;;;;18.60;39.40;;;;;;5046121;28;20015;-61
2023/01/17 01:39:16;;;;;;;;;;;18.60;39.30;;;;;;5058351;28;20309;-61
2023/01/17 01:41:43;;;;;;;;;;;18.60;39.30;;;;;;5049588;28;19952;-61
2023/01/17 01:44:25;;;;;;;;;;;18.60;39.30;;;;;;5050775;28;20273;-61
2023/01/17 01:46:52;;;;;;;;;;;18.60;39.30;;;;;;5048378;28;20035;-61
2023/01/17 01:49:19;;;;;;;;;;;18.60;39.30;;;;;;5050623;28;19975;-61
2023/01/17 01:51:47;;;;;;;;;;;18.60;39.40;;;;;;5048902;28;19920;-61
2023/01/17 01:54:14;;;;;;;;;;;18.60;39.40;;;;;;5050873;28;19959;-61
2023/01/17 01:56:42;;;;;;;;;;;18.60;39.40;;;;;;5057499;28;19920;-63
2023/01/17 01:59:09;;;;;;;;;;;18.60;39.40;;;;;;5050951;28;19955;-62
2023/01/17 02:01:36;;;;;;;;;;;18.60;39.40;;;;;;5051615;28;19920;-62
2023/01/17 02:04:03;;;;;;;;;;;18.50;39.40;;;;;;5053356;28;19921;-63
2023/01/17 02:06:30;;;;;;;;;;;18.50;39.40;;;;;;5048643;28;19971;-61
2023/01/17 02:08:57;;;;;;;;;;;18.50;39.40;;;;;;5057780;28;19960;-63
2023/01/17 02:11:24;;;;;;;;;;;18.50;39.40;;;;;;5047148;28;20440;-61
2023/01/17 02:13:52;;;;;;;;;;;18.50;39.40;;;;;;5053253;28;19920;-61
2023/01/17 02:16:33;;;;;;;;;;;18.50;39.40;;;;;;5049244;28;20414;-63
2023/01/17 02:19:04;;;;;;;;;;;18.50;39.40;;;;;;5075734;28;20014;-62
2023/01/17 02:21:31;;;;;;;;;;;18.50;39.40;;;;;;5048278;28;19936;-61
2023/01/17 02:24:15;;;;;;;;;;;18.50;39.50;;;;;;5050484;28;19971;-62
2023/01/17 02:26:56;;;;;;;;;;;18.50;39.50;;;;;;5060923;28;19971;-62
2023/01/17 02:29:41;;;;;;;;;;;18.50;39.50;;;;;;5048041;28;19921;-61
2023/01/17 02:32:10;;;;;;;;;;;18.50;39.50;;;;;;5065265;28;19970;-60
2023/01/17 02:34:39;;;;;;;;;;;18.50;39.50;;;;;;5045466;28;19920;-60
2023/01/17 02:37:07;;;;;;;;;;;18.50;39.50;;;;;;5049040;28;19937;-61
2023/01/17 02:39:34;;;;;;;;;;;18.50;39.50;;;;;;5042519;28;19925;-61
2023/01/17 02:42:02;;;;;;;;;;;18.50;39.50;;;;;;5073171;28;20018;-62
2023/01/17 02:44:28;;;;;;;;;;;18.50;39.50;;;;;;5050064;28;19921;-60
2023/01/17 02:46:56;;;;;;;;;;;18.50;39.50;;;;;;5050252;28;19978;-61
2023/01/17 02:49:24;;;;;;;;;;;18.40;39.40;;;;;;5049038;28;19928;-61
2023/01/17 02:51:54;;;;;;;;;;;18.50;39.50;;;;;;5048683;28;20405;-63
2023/01/17 02:54:32;;;;;;;;;;;18.40;39.40;;;;;;5049206;28;19995;-61
2023/01/17 02:57:03;;;;;;;;;;;18.50;39.50;;;;;;5049064;28;19956;-61
2023/01/17 02:59:33;;;;;;;;;;;18.40;39.40;;;;;;5046837;28;19932;-61
2023/01/17 03:02:03;;;;;;;;;;;18.40;39.50;;;;;;5050832;28;19924;-60
2023/01/17 03:04:33;;;;;;;;;;;18.40;39.50;;;;;;5074355;28;19925;-60
2023/01/17 03:07:00;;;;;;;;;;;18.40;39.50;;;;;;5049860;28;19967;-61
2023/01/17 03:09:27;;;;;;;;;;;18.40;39.60;;;;;;5051704;28;19960;-61
2023/01/17 03:11:54;;;;;;;;;;;18.40;39.50;;;;;;5052920;28;19920;-61
2023/01/17 03:14:21;;;;;;;;;;;18.40;39.50;;;;;;5054124;28;19921;-62
2023/01/17 03:16:47;;;;;;;;;;;18.40;39.50;;;;;;5050582;28;19954;-61
2023/01/17 03:19:14;;;;;;;;;;;18.40;39.60;;;;;;5057623;28;19955;-61
2023/01/17 03:21:43;;;;;;;;;;;18.40;39.50;;;;;;5053654;28;20008;-60
2023/01/17 03:24:09;;;;;;;;;;;18.40;39.50;;;;;;5053883;28;19925;-63
2023/01/17 03:26:36;;;;;;;;;;;18.40;39.60;;;;;;5052001;28;19927;-62
2023/01/17 03:29:03;;;;;;;;;;;18.40;39.60;;;;;;5052423;28;19957;-61
2023/01/17 03:31:30;;;;;;;;;;;18.40;39.60;;;;;;5074833;28;19929;-60
2023/01/17 03:33:56;;;;;;;;;;;18.40;39.60;;;;;;5051963;28;20274;-60
2023/01/17 03:36:23;;;;;;;;;;;18.40;39.60;;;;;;5053190;28;19978;-61
2023/01/17 03:38:51;;;;;;;;;;;18.40;39.60;;;;;;5076506;28;19932;-61
2023/01/17 03:41:18;;;;;;;;;;;18.40;39.60;;;;;;5051003;28;19932;-61
2023/01/17 03:43:45;;;;;;;;;;;18.40;39.60;;;;;;5053460;28;19925;-60
2023/01/17 03:46:17;;;;;;;;;;;18.30;39.50;;;;;;5052734;28;19936;-60
2023/01/17 03:48:44;;;;;;;;;;;18.40;39.60;;;;;;5050805;28;19943;-61
2023/01/17 03:51:11;;;;;;;;;;;18.30;39.60;;;;;;5052541;28;19925;-61
2023/01/17 03:53:38;;;;;;;;;;;18.30;39.60;;;;;;5053573;28;19944;-61
2023/01/17 03:56:06;;;;;;;;;;;18.30;39.60;;;;;;5051502;28;19921;-62
2023/01/17 03:58:33;;;;;;;;;;;18.30;39.60;;;;;;5051657;28;19925;-60
2023/01/17 04:01:00;;;;;;;;;;;18.40;39.60;;;;;;5036863;28;19928;-61
2023/01/17 04:03:27;;;;;;;;;;;18.30;39.60;;;;;;5058978;28;19953;-60
2023/01/17 04:05:54;;;;;;;;;;;18.40;39.60;;;;;;5055544;28;20004;-60
2023/01/17 04:08:21;;;;;;;;;;;18.30;39.50;;;;;;5051776;28;20010;-60
2023/01/17 04:10:48;;;;;;;;;;;18.30;39.50;;;;;;5052654;28;19921;-60
2023/01/17 04:13:16;;;;;;;;;;;18.30;39.50;;;;;;5048656;28;19947;-61
2023/01/17 04:15:44;;;;;;;;;;;18.30;39.50;;;;;;5052051;28;19967;-61
2023/01/17 04:18:11;;;;;;;;;;;18.40;39.60;;;;;;5052491;28;19931;-61
2023/01/17 04:20:38;;;;;;;;;;;18.30;39.50;;;;;;5061689;28;20010;-61
2023/01/17 04:23:05;;;;;;;;;;;18.40;39.60;;;;;;5052895;28;19924;-61
2023/01/17 04:25:32;;;;;;;;;;;18.30;39.50;;;;;;5052241;28;19986;-62
2023/01/17 04:27:59;;;;;;;;;;;18.30;39.40;;;;;;5051408;28;19974;-61
2023/01/17 04:30:27;;;;;;;;;;;18.30;39.40;;;;;;5053130;28;20274;-62
2023/01/17 04:32:54;;;;;;;;;;;18.30;39.40;;;;;;5050749;28;19928;-60
2023/01/17 04:35:20;;;;;;;;;;;18.30;39.40;;;;;;5052449;28;19924;-60
2023/01/17 04:37:47;;;;;;;;;;;18.30;39.30;;;;;;5050619;28;19931;-64
2023/01/17 04:40:14;;;;;;;;;;;18.30;39.30;;;;;;5050896;28;19921;-61
2023/01/17 04:42:41;;;;;;;;;;;18.30;39.30;;;;;;5050502;28;19929;-61
2023/01/17 04:45:08;;;;;;;;;;;18.30;39.30;;;;;;5050118;28;19959;-62
2023/01/17 04:47:36;;;;;;;;;;;18.30;39.30;;;;;;5079050;28;19964;-61
2023/01/17 04:50:03;;;;;;;;;;;18.30;39.30;;;;;;5052062;28;20266;-61
2023/01/17 04:52:30;;;;;;;;;;;18.30;39.30;;;;;;5053913;28;20345;-62
2023/01/17 04:54:56;;;;;;;;;;;18.30;39.30;;;;;;5051700;28;19932;-61
2023/01/17 04:57:23;;;;;;;;;;;18.30;39.30;;;;;;5050375;28;19921;-60
2023/01/17 04:59:52;;;;;;;;;;;18.30;39.30;;;;;;5074410;28;20023;-60
2023/01/17 05:02:19;;;;;;;;;;;18.30;39.30;;;;;;5048911;28;19948;-61
2023/01/17 05:04:47;;;;;;;;;;;18.30;39.30;;;;;;5050126;28;19925;-61
2023/01/17 05:07:14;;;;;;;;;;;18.30;39.30;;;;;;5051382;28;19929;-66
2023/01/17 05:09:42;;;;;;;;;;;18.30;39.30;;;;;;5051803;28;19925;-62
2023/01/17 05:12:09;;;;;;;;;;;18.30;39.30;;;;;;5056798;28;19970;-61
2023/01/17 05:14:36;;;;;;;;;;;18.30;39.30;;;;;;5051537;28;19975;-65
2023/01/17 05:17:03;;;;;;;;;;;18.30;39.30;;;;;;5051717;28;19927;-61
2023/01/17 05:19:29;;;;;;;;;;;18.20;39.20;;;;;;5049186;28;19947;-60
2023/01/17 05:22:02;;;;;;;;;;;18.30;39.30;;;;;;5049229;28;20340;-61
2023/01/17 05:24:29;;;;;;;;;;;18.20;39.20;;;;;;5050494;28;19925;-63
2023/01/17 05:27:01;;;;;;;;;;;18.30;39.30;;;;;;5049774;28;19925;-62
2023/01/17 05:29:28;;;;;;;;;;;18.20;39.30;;;;;;5049634;28;19921;-61
2023/01/17 05:31:55;;;;;;;;;;;18.30;39.30;;;;;;5048889;28;19925;-61
2023/01/17 05:34:22;;;;;;;;;;;18.20;39.30;;;;;;5058506;28;19921;-60
2023/01/17 05:36:49;;;;;;;;;;;18.30;39.30;;;;;;5048598;28;19966;-64
2023/01/17 05:39:17;;;;;;;;;;;18.30;39.30;;;;;;5049772;28;19920;-61
2023/01/17 05:41:44;;;;;;;;;;;18.20;39.30;;;;;;5050964;28;19974;-61
2023/01/17 05:44:10;;;;;;;;;;;18.30;39.30;;;;;;5057359;28;19921;-60
2023/01/17 05:46:37;;;;;;;;;;;18.30;39.30;;;;;;5049346;28;19970;-61
2023/01/17 05:49:04;;;;;;;;;;;18.30;39.30;;;;;;5049372;28;19974;-60
2023/01/17 05:51:31;;;;;;;;;;;18.20;39.30;;;;;;5057559;28;19929;-65
2023/01/17 05:53:58;;;;;;;;;;;18.20;39.20;;;;;;5061687;28;19921;-60
2023/01/17 05:56:26;;;;;;;;;;;18.20;39.10;;;;;;5057667;28;20371;-61
2023/01/17 05:58:53;;;;;;;;;;;18.20;39.10;;;;;;5047651;28;20351;-62
2023/01/17 06:01:20;;;;;;;;;;;18.20;39.00;;;;;;5047498;28;20402;-60
2023/01/17 06:03:46;;;;;;;;;;;18.20;38.90;;;;;;5062722;28;19921;-60
2023/01/17 06:06:13;;;;;;;;;;;18.20;38.90;;;;;;5050746;28;19967;-62
2023/01/17 06:08:40;;;;;;;;;;;18.10;38.80;;;;;;5048221;28;19975;-60
2023/01/17 06:11:07;;;;;;;;;;;18.10;38.90;;;;;;5050428;28;19974;-60
2023/01/17 06:13:35;;;;;;;;;;;18.10;38.90;;;;;;5075753;28;20010;-62
2023/01/17 06:16:02;;;;;;;;;;;18.10;38.90;;;;;;5056911;28;19924;-62
2023/01/17 06:18:29;;;;;;;;;;;18.10;38.80;;;;;;5047793;28;20005;-60
2023/01/17 06:20:56;;;;;;;;;;;18.00;38.70;;;;;;5050449;28;19971;-60
2023/01/17 06:23:25;;;;;;;;;;;18.00;38.70;;;;;;5050816;28;19970;-60
2023/01/17 06:25:52;;;;;;;;;;;18.00;38.60;;;;;;5043689;28;20294;-61
2023/01/17 06:28:19;;;;;;;;;;;18.00;38.70;;;;;;5074488;28;19928;-60
2023/01/17 06:30:47;;;;;;;;;;;18.00;38.70;;;;;;5049200;28;19925;-63
2023/01/17 06:33:14;;;;;;;;;;;17.90;38.60;;;;;;5048644;28;19932;-65
2023/01/17 06:35:47;;;;;;;;;;;17.90;38.50;;;;;;5049914;28;19983;-61
2023/01/17 06:38:14;;;;;;;;;;;17.90;38.50;;;;;;5048881;28;19932;-60
2023/01/17 06:40:40;;;;;;;;;;;17.90;38.50;;;;;;5049052;28;20369;-62
2023/01/17 06:43:07;;;;;;;;;;;17.90;38.50;;;;;;5048783;28;19920;-60
2023/01/17 06:45:34;;;;;;;;;;;17.90;38.50;;;;;;5053312;28;19994;-59
2023/01/17 06:48:03;;;;;;;;;;;17.90;38.50;;;;;;5049903;28;19971;-60
2023/01/17 06:50:30;;;;;;;;;;;17.80;38.40;;;;;;5053187;28;19943;-60
2023/01/17 06:52:58;;;;;;;;;;;17.80;38.30;;;;;;5051538;28;19921;-60
2023/01/17 06:55:27;;;;;;;;;;;17.80;38.20;;;;;;5079041;28;19927;-60
2023/01/17 06:57:54;;;;;;;;;;;17.80;38.10;;;;;;5054101;28;19975;-61
2023/01/17 07:00:21;;;;;;;;;;;17.80;38.20;;;;;;5050904;28;20144;-59
2023/01/17 07:02:48;;;;;;;;;;;17.70;38.20;;;;;;5052234;28;19928;-60
2023/01/17 07:05:16;;;;;;;;;;;17.70;38.20;;;;;;5054078;28;19921;-63
2023/01/17 07:07:43;;;;;;;;;;;17.70;38.30;;;;;;5060649;28;19921;-60
2023/01/17 07:10:10;;;;;;;;;;;17.70;38.30;;;;;;5052281;28;19967;-60
2023/01/17 07:12:37;;;;;;;;;;;17.70;38.30;;;;;;5052024;28;20043;-60
2023/01/17 07:15:04;;;;;;;;;;;17.80;39.00;;;;;;5051630;28;20013;-60
2023/01/17 07:17:31;;;;;;;;;;;17.80;38.40;;;;;;5051691;28;19966;-60
2023/01/17 07:19:57;;;;;;;;;;;17.80;38.50;;;;;;5051269;28;19936;-62
2023/01/17 07:22:26;;;;;;;;;;;17.80;38.50;;;;;;5053708;28;19975;-61
2023/01/17 07:24:57;;;;;;;;;;;17.80;38.50;;;;;;5052476;28;19929;-62
2023/01/17 07:27:24;;;;;;;;;;;17.80;38.50;;;;;;5076851;28;19939;-63
2023/01/17 07:29:51;;;;;;;;;;;17.80;38.40;;;;;;5053441;28;19975;-61
2023/01/17 07:32:18;;;;;;;;;;;17.80;38.40;;;;;;5049455;28;20310;-60
2023/01/17 07:34:44;;;;;;;;;;;17.80;38.40;;;;;;5051370;28;19943;-61
2023/01/17 07:37:11;;;;;;;;;;;17.80;38.40;;;;;;5084125;28;19933;-61
2023/01/17 07:39:39;;;;;;;;;;;17.80;38.40;;;;;;5050599;28;19982;-62
2023/01/17 07:42:06;;;;;;;;;;;17.80;38.40;;;;;;5084828;28;19925;-60
2023/01/17 07:44:33;;;;;;;;;;;17.90;38.50;;;;;;5051766;28;20358;-61
2023/01/17 07:47:00;;;;;;;;;;;17.90;38.50;;;;;;5050789;28;19924;-62
2023/01/17 07:49:26;;;;;;;;;;;17.90;38.50;;;;;;5037669;28;19975;-63
2023/01/17 07:51:54;;;;;;;;;;;17.90;38.50;;;;;;5050163;28;19924;-62
2023/01/17 07:54:20;;;;;;;;;;;17.90;38.50;;;;;;5048646;28;20286;-61
2023/01/17 07:56:49;;;;;;;;;;;17.90;38.50;;;;;;5050660;28;19944;-61
2023/01/17 07:59:16;;;;;;;;;;;17.90;38.50;;;;;;5051412;28;19920;-65
2023/01/17 08:01:43;;;;;;;;;;;17.90;38.40;;;;;;5083641;28;19940;-63
2023/01/17 08:04:10;;;;;;;;;;;17.90;38.50;;;;;;5087208;28;19921;-62
2023/01/17 08:06:37;;;;;;;;;;;17.90;38.70;;;;;;5048679;28;19964;-61
2023/01/17 08:09:04;;;;;;;;;;;17.90;39.00;;;;;;5046313;28;19921;-63
2023/01/17 08:11:30;;;;;;;;;;;18.00;39.20;;;;;;5053540;28;19928;-62
2023/01/17 08:13:59;;;;;;;;;;;18.00;39.40;;;;;;5052203;28;19978;-62
2023/01/17 08:16:26;;;;;;;;;;;18.00;39.50;;;;;;5047753;28;20003;-62
2023/01/17 08:18:54;;;;;;;;;;;18.10;40.30;;;;;;5051928;28;19924;-62
2023/01/17 08:21:21;;;;;;;;;;;18.10;39.80;;;;;;5051712;28;19921;-62
2023/01/17 08:23:47;;;;;;;;;;;18.10;39.80;;;;;;5071218;28;20425;-61
2023/01/17 08:26:20;;;;;;;;;;;18.20;40.00;;;;;;5082353;28;20564;-62
2023/01/17 08:28:48;;;;;;;;;;;18.20;40.00;;;;;;5053120;28;19920;-61
2023/01/17 08:31:18;;;;;;;;;;;18.20;40.10;;;;;;5056299;28;19921;-62
2023/01/17 08:33:45;;;;;;;;;;;18.30;40.20;;;;;;5055981;28;19921;-63
2023/01/17 08:36:12;;;;;;;;;;;18.30;40.20;;;;;;5052420;28;19921;-62
2023/01/17 08:38:39;;;;;;;;;;;18.30;40.30;;;;;;5051762;28;20275;-61
2023/01/17 08:41:05;;;;;;;;;;;18.30;40.30;;;;;;5050879;28;19921;-65
2023/01/17 08:43:32;;;;;;;;;;;18.30;40.40;;;;;;5051156;28;20010;-62
2023/01/17 08:45:59;;;;;;;;;;;18.40;40.40;;;;;;5069514;28;20260;-62
2023/01/17 08:48:27;;;;;;;;;;;18.40;40.50;;;;;;5054175;28;20032;-61
2023/01/17 08:50:54;;;;;;;;;;;18.40;40.50;;;;;;5055940;28;20027;-62
2023/01/17 08:53:22;;;;;;;;;;;18.40;40.60;;;;;;5051758;28;19924;-62
2023/01/17 08:55:50;;;;;;;;;;;18.40;40.50;;;;;;5054991;28;19927;-62
2023/01/17 08:58:17;;;;;;;;;;;18.50;40.70;;;;;;5051655;28;19921;-61
2023/01/17 09:00:43;;;;;;;;;;;18.50;40.70;;;;;;5049688;28;19931;-61
2023/01/17 09:03:12;;;;;;;;;;;18.50;40.70;;;;;;5048627;28;19920;-63
2023/01/17 09:05:41;;;;;;;;;;;18.50;40.70;;;;;;5049560;28;19928;-62
2023/01/17 09:08:07;;;;;;;;;;;18.50;40.80;;;;;;5050273;28;19956;-61
2023/01/17 09:10:34;;;;;;;;;;;18.50;40.80;;;;;;5055222;28;19929;-61
2023/01/17 09:13:01;;;;;;;;;;;18.50;40.80;;;;;;5051164;28;19924;-61
2023/01/17 09:15:28;;;;;;;;;;;18.60;40.80;;;;;;5053685;28;19929;-61
2023/01/17 09:17:56;;;;;;;;;;;18.60;40.90;;;;;;5050925;28;19925;-61
2023/01/17 09:20:23;;;;;;;;;;;18.60;40.90;;;;;;5051819;28;19944;-61
2023/01/17 09:22:51;;;;;;;;;;;18.60;40.90;;;;;;5050002;28;20011;-59
2023/01/17 09:25:18;;;;;;;;;;;18.60;40.90;;;;;;5050296;28;19920;-61
2023/01/17 09:27:45;;;;;;;;;;;18.60;40.90;;;;;;5056751;28;19951;-61
2023/01/17 09:30:12;;;;;;;;;;;18.60;40.90;;;;;;5047209;28;20037;-63
2023/01/17 09:32:39;;;;;;;;;;;18.70;41.00;;;;;;5055358;28;19928;-63
2023/01/17 09:35:07;;;;;;;;;;;18.70;41.10;;;;;;5052440;28;19920;-60
2023/01/17 09:37:34;;;;;;;;;;;18.70;41.10;;;;;;5086824;28;19932;-60
2023/01/17 09:40:02;;;;;;;;;;;18.70;41.20;;;;;;5049811;28;19920;-60
2023/01/17 09:42:31;;;;;;;;;;;18.70;41.20;;;;;;5053639;28;20023;-61
2023/01/17 09:44:58;;;;;;;;;;;18.70;41.20;;;;;;5054421;28;20367;-61
2023/01/17 09:47:28;;;;;;;;;;;18.70;41.20;;;;;;5045823;28;19925;-62
2023/01/17 09:49:55;;;;;;;;;;;18.70;41.20;;;;;;5048959;28;19987;-62
2023/01/17 09:52:22;;;;;;;;;;;18.80;41.20;;;;;;5046666;28;19920;-61
2023/01/17 09:54:49;;;;;;;;;;;18.80;41.30;;;;;;5082013;28;20334;-62
2023/01/17 09:57:26;;;;;;;;;;;18.80;41.20;;;;;;5054393;28;19924;-62
2023/01/17 09:59:54;;;;;;;;;;;18.80;41.20;;;;;;5050907;28;19920;-61
2023/01/17 10:02:34;;;;;;;;;;;18.80;41.30;;;;;;5050829;28;19921;-62
2023/01/17 10:05:05;;;;;;;;;;;18.80;41.30;;;;;;5054049;28;19921;-61
2023/01/17 10:07:33;;;;;;;;;;;18.80;41.30;;;;;;5048440;28;19921;-61
2023/01/17 10:10:06;;;;;;;;;;;18.80;41.40;;;;;;5050463;28;19937;-61
2023/01/17 10:12:35;;;;;;;;;;;18.80;41.30;;;;;;5046466;28;19929;-62
2023/01/17 10:15:11;;;;;;;;;;;18.80;41.50;;;;;;5041586;28;19921;-60
2023/01/17 10:17:41;;;;;;;;;;;18.80;41.50;;;;;;5074542;28;19986;-60
2023/01/17 10:20:12;;;;;;;;;;;18.90;41.60;;;;;;5052694;28;19920;-61
2023/01/17 10:23:03;;;;;;;;;;;18.90;41.60;;;;;;5052779;28;19991;-62
2023/01/17 10:25:48;;;;;;;;;;;18.90;41.60;;;;;;5037670;28;20015;-62
2023/01/17 10:28:17;;;;;;;;;;;18.90;41.60;;;;;;5053609;28;19924;-62
2023/01/17 10:30:47;;;;;;;;;;;18.90;41.60;;;;;;5055174;28;19943;-61
2023/01/17 10:33:15;;;;;;;;;;;18.90;41.60;;;;;;5052367;28;19943;-67
2023/01/17 10:35:44;;;;;;;;;;;18.90;41.70;;;;;;5057815;28;19921;-62
2023/01/17 10:38:11;;;;;;;;;;;18.90;41.70;;;;;;5047454;28;19921;-65
2023/01/17 10:40:40;;;;;;;;;;;18.90;41.70;;;;;;5078622;28;20024;-63
2023/01/17 10:43:10;;;;;;;;;;;18.90;41.70;;;;;;5066093;28;19920;-63
2023/01/17 10:45:39;;;;;;;;;;;19.00;41.80;;;;;;5033675;28;19921;-63
2023/01/17 10:48:09;;;;;;;;;;;19.00;41.80;;;;;;5039536;28;19921;-63
2023/01/17 10:50:38;;;;;;;;;;;19.00;41.80;;;;;;5052498;28;19931;-63
2023/01/17 10:53:06;;;;;;;;;;;19.00;41.80;;;;;;5052708;28;19990;-62
2023/01/17 10:55:34;;;;;;;;;;;19.00;41.80;;;;;;5048431;28;19921;-63
2023/01/17 10:58:01;;;;;;;;;;;19.00;41.90;;;;;;5045264;28;19964;-63
2023/01/17 11:00:30;;;;;;;;;;;19.00;41.90;;;;;;5046307;28;19967;-63
2023/01/17 11:02:58;;;;;;;;;;;19.00;41.90;;;;;;5048413;28;20358;-63
2023/01/17 11:05:27;;;;;;;;;;;19.00;41.90;;;;;;5053607;28;20351;-64
2023/01/17 11:07:57;;;;;;;;;;;19.00;41.90;;;;;;5046003;28;20015;-62
2023/01/17 11:10:34;;;;;;;;;;;19.00;41.90;;;;;;5065571;28;19921;-60
2023/01/17 11:13:01;;;;;;;;;;;19.10;42.00;;;;;;5070603;28;19921;-61
2023/01/17 11:15:27;;;;;;;;;;;19.10;41.90;;;;;;5053708;28;19921;-61
2023/01/17 11:18:02;;;;;;;;;;;19.10;42.00;;;;;;5048403;28;19921;-63
2023/01/17 11:20:29;;;;;;;;;;;19.00;41.90;;;;;;5045993;28;20408;-63
2023/01/17 11:23:14;;;;;;;;;;;19.10;42.00;;;;;;5062304;28;19947;-63
2023/01/17 11:25:41;;;;;;;;;;;19.10;42.00;;;;;;5048290;28;19967;-63
2023/01/17 11:28:17;;;;;;;;;;;19.10;42.00;;;;;;5049795;28;19996;-63
2023/01/17 11:30:50;;;;;;;;;;;19.10;42.00;;;;;;5055242;28;19925;-64
2023/01/17 11:33:25;;;;;;;;;;;19.10;42.00;;;;;;5053279;28;20260;-62
2023/01/17 11:35:52;;;;;;;;;;;19.10;42.00;;;;;;5055700;28;20322;-63
2023/01/17 11:38:20;;;;;;;;;;;19.10;42.00;;;;;;5057002;28;19943;-61
2023/01/17 11:40:47;;;;;;;;;;;19.10;42.00;;;;;;5050588;28;19921;-61
2023/01/17 11:43:18;;;;;;;;;;;19.10;42.00;;;;;;5049154;28;19920;-67
2023/01/17 11:45:45;;;;;;;;;;;19.10;42.10;;;;;;5042892;28;19921;-61
2023/01/17 11:48:13;;;;;;;;;;;19.10;42.10;;;;;;5050662;28;19921;-63
2023/01/17 11:50:42;;;;;;;;;;;19.10;42.10;;;;;;5056663;28;19921;-61
2023/01/17 11:53:14;;;;;;;;;;;19.10;42.10;;;;;;5060926;28;19924;-61
2023/01/17 11:55:51;;;;;;;;;;;19.20;42.20;;;;;;5066320;28;20015;-62
2023/01/17 11:58:18;;;;;;;;;;;19.20;42.20;;;;;;5053254;28;19970;-61
2023/01/17 12:00:45;;;;;;;;;;;19.20;42.20;;;;;;5056621;28;20358;-62
2023/01/17 12:03:14;;;;;;;;;;;19.20;42.20;;;;;;5053041;28;19920;-64
2023/01/17 12:05:52;;;;;;;;;;;19.20;42.20;;;;;;5074535;28;19975;-64
2023/01/17 12:08:21;;;;;;;;;;;19.20;42.20;;;;;;5049305;28;19921;-64
2023/01/17 12:10:51;;;;;;;;;;;19.20;42.20;;;;;;5050495;28;19921;-63
2023/01/17 12:18:52;;;;;;;;;;;19.20;42.20;;;;;;5055962;28;19921;-64
2023/01/17 12:21:22;;;;;;;;;;;19.20;42.20;;;;;;5052718;28;19924;-61
2023/01/17 12:23:56;;;;;;;;;;;19.20;42.20;;;;;;5054637;28;20393;-61
2023/01/17 12:26:26;;;;;;;;;;;19.20;42.20;;;;;;5050703;28;19921;-59
2023/01/17 12:28:57;;;;;;;;;;;19.20;42.20;;;;;;5046103;28;19972;-61
2023/01/17 12:31:26;;;;;;;;;;;19.20;42.20;;;;;;5049079;28;20007;-62
2023/01/17 12:33:53;;;;;;;;;;;19.20;42.20;;;;;;5051371;28;19943;-61
2023/01/17 12:36:27;;;;;;;;;;;19.20;42.20;;;;;;5085870;28;19971;-60
2023/01/17 12:38:55;;;;;;;;;;;19.20;42.20;;;;;;5052628;28;19966;-63
2023/01/17 12:41:23;;;;;;;;;;;19.20;42.20;;;;;;5055243;28;19971;-61
2023/01/17 12:43:52;;;;;;;;;;;19.20;42.20;;;;;;5052857;28;19968;-61
2023/01/17 12:46:22;;;;;;;;;;;19.20;42.20;;;;;;5055183;28;19920;-61
2023/01/17 12:48:50;;;;;;;;;;;19.30;42.30;;;;;;5048946;28;19924;-61
2023/01/17 12:51:18;;;;;;;;;;;19.20;42.20;;;;;;5088024;28;19920;-62
2023/01/17 12:53:48;;;;;;;;;;;19.20;42.20;;;;;;5051102;28;19925;-62
2023/01/17 12:56:16;;;;;;;;;;;19.20;42.20;;;;;;5051753;28;19920;-61
2023/01/17 12:58:44;;;;;;;;;;;19.20;42.20;;;;;;5052104;28;19924;-60
2023/01/17 13:01:14;;;;;;;;;;;19.20;42.20;;;;;;5054383;28;19921;-62
2023/01/17 13:18:58;;;;;;;;;;;19.30;42.50;;;;;;5072001;28;19979;-62
2023/01/17 13:21:28;;;;;;;;;;;19.30;42.50;;;;;;5048666;28;19921;-64
2023/01/17 13:24:13;;;;;;;;;;;19.30;42.50;;;;;;5086760;28;19921;-62
2023/01/17 13:26:43;;;;;;;;;;;19.30;42.50;;;;;;5061611;28;19921;-60
2023/01/17 13:29:13;;;;;;;;;;;19.30;42.50;;;;;;5053652;28;19921;-62
2023/01/17 13:31:47;;;;;;;;;;;19.30;42.50;;;;;;5050920;28;20378;-63
2023/01/17 13:34:20;;;;;;;;;;;19.30;42.50;;;;;;5048560;28;19921;-62
2023/01/17 13:36:49;;;;;;;;;;;19.30;42.60;;;;;;5055108;28;19927;-63
2023/01/17 13:39:21;;;;;;;;;;;19.30;42.50;;;;;;5048790;28;19921;-61
2023/01/17 13:41:50;;;;;;;;;;;19.30;42.50;;;;;;5066143;28;20019;-62
2023/01/17 13:44:23;;;;;;;;;;;19.30;42.50;;;;;;5053613;28;19925;-62
2023/01/17 13:46:54;;;;;;;;;;;19.40;42.70;;;;;;5055093;28;19920;-62
2023/01/17 13:49:32;;;;;;;;;;;19.30;42.50;;;;;;5058349;28;19920;-62
2023/01/17 13:52:04;;;;;;;;;;;19.40;42.60;;;;;;5051056;28;19921;-61
2023/01/17 13:54:31;;;;;;;;;;;19.40;42.60;;;;;;5053519;28;20309;-61
2023/01/17 13:57:13;;;;;;;;;;;19.30;42.50;;;;;;5052459;28;19967;-61
2023/01/17 13:59:39;;;;;;;;;;;19.40;42.60;;;;;;5047381;28;20020;-61
2023/01/17 14:02:11;;;;;;;;;;;19.40;42.60;;;;;;5048397;28;19921;-62
2023/01/17 14:04:57;;;;;;;;;;;19.40;42.60;;;;;;5046852;28;19936;-61
2023/01/17 14:07:26;;;;;;;;;;;19.40;42.60;;;;;;5067504;28;19987;-62
2023/01/17 14:09:52;;;;;;;;;;;19.30;42.60;;;;;;5052854;28;20307;-62
2023/01/17 14:12:27;;;;;;;;;;;19.40;42.60;;;;;;5050789;28;19974;-65
2023/01/17 14:14:55;;;;;;;;;;;19.40;42.70;;;;;;5054057;28;19921;-64
2023/01/17 14:17:27;;;;;;;;;;;19.40;42.70;;;;;;5052747;28;19944;-64
2023/01/17 14:19:54;;;;;;;;;;;19.40;42.70;;;;;;5048256;28;19942;-63
2023/01/17 14:22:22;;;;;;;;;;;19.40;42.70;;;;;;5057144;28;20362;-68
2023/01/17 14:25:00;;;;;;;;;;;19.30;42.70;;;;;;5089580;28;20414;-63
2023/01/17 14:27:27;;;;;;;;;;;19.40;42.70;;;;;;5048757;28;19982;-62
2023/01/17 14:29:54;;;;;;;;;;;19.40;42.80;;;;;;5052877;28;19967;-62
2023/01/17 14:32:22;;;;;;;;;;;19.40;43.40;;;;;;5051415;28;19952;-61
2023/01/17 14:34:49;;;;;;;;;;;19.40;42.80;;;;;;5052466;28;19928;-63
2023/01/17 14:37:16;;;;;;;;;;;19.40;42.80;;;;;;5050155;28;19990;-62
2023/01/17 14:39:45;;;;;;;;;;;19.40;42.90;;;;;;5051182;28;19920;-61
2023/01/17 14:42:14;;;;;;;;;;;19.40;42.90;;;;;;5049982;28;19921;-62
2023/01/17 14:44:41;;;;;;;;;;;19.40;42.90;;;;;;5047246;28;19975;-63
2023/01/17 14:47:10;;;;;;;;;;;19.40;42.90;;;;;;5046808;28;19974;-62
2023/01/17 14:49:37;;;;;;;;;;;19.40;42.90;;;;;;5047220;28;19971;-61
2023/01/17 14:52:05;;;;;;;;;;;19.40;42.90;;;;;;5053391;28;19921;-61
2023/01/17 14:54:31;;;;;;;;;;;19.40;42.90;;;;;;5049984;28;19924;-62
2023/01/17 14:57:13;;;;;;;;;;;19.40;42.90;;;;;;5085929;28;19932;-63
2023/01/17 14:59:41;;;;;;;;;;;19.40;42.90;;;;;;5050935;28;19967;-63
2023/01/17 15:02:08;;;;;;;;;;;19.40;42.90;;;;;;5053138;28;19924;-62
2023/01/17 15:04:37;;;;;;;;;;;19.40;43.00;;;;;;5049719;28;19975;-62
2023/01/17 15:07:04;;;;;;;;;;;19.40;43.00;;;;;;5052540;28;19927;-63
2023/01/17 15:09:32;;;;;;;;;;;19.40;43.60;;;;;;5052085;28;19933;-63
2023/01/17 15:11:59;;;;;;;;;;;19.40;43.00;;;;;;5053292;28;19925;-62
2023/01/17 15:14:27;;;;;;;;;;;19.40;43.00;;;;;;5054693;28;19967;-62
2023/01/17 15:16:55;;;;;;;;;;;19.40;43.00;;;;;;5055838;28;19921;-61
2023/01/17 15:19:22;;;;;;;;;;;19.40;43.10;;;;;;5053859;28;19974;-62
2023/01/17 15:21:49;;;;;;;;;;;19.50;43.20;;;;;;5057398;28;19986;-62
2023/01/17 15:24:17;;;;;;;;;;;19.50;43.20;;;;;;5053787;28;19921;-62
2023/01/17 15:26:44;;;;;;;;;;;19.40;43.10;;;;;;5070506;28;20192;-62
2023/01/17 15:29:14;;;;;;;;;;;19.50;43.20;;;;;;5084489;28;20305;-62
2023/01/17 15:31:42;;;;;;;;;;;19.50;43.20;;;;;;5058362;28;19966;-61
2023/01/17 15:34:22;;;;;;;;;;;19.50;43.20;;;;;;5054896;28;19931;-62
2023/01/17 15:36:49;;;;;;;;;;;19.50;43.20;;;;;;5069910;28;20019;-62
2023/01/17 15:39:17;;;;;;;;;;;19.50;43.20;;;;;;5054986;28;19921;-62
2023/01/17 15:41:46;;;;;;;;;;;19.50;43.30;;;;;;5071890;28;19921;-61
2023/01/17 15:44:21;;;;;;;;;;;19.50;43.30;;;;;;5036805;28;19921;-61
2023/01/17 15:46:48;;;;;;;;;;;19.50;43.30;;;;;;5078702;28;20354;-61
2023/01/17 15:49:17;;;;;;;;;;;19.50;43.30;;;;;;5055227;28;19928;-61
2023/01/17 15:51:51;;;;;;;;;;;19.50;43.40;;;;;;5049595;28;20321;-61
2023/01/17 15:54:25;;;;;;;;;;;19.40;43.30;;;;;;5052721;28;19921;-61
2023/01/17 15:57:02;;;;;;;;;;;19.50;43.40;;;;;;5050967;28;19982;-61
2023/01/17 15:59:30;;;;;;;;;;;19.50;43.30;;;;;;5069818;28;19920;-62
2023/01/17 16:01:57;;;;;;;;;;;19.50;43.40;;;;;;5056280;28;20353;-61
2023/01/17 16:04:28;;;;;;;;;;;19.50;43.40;;;;;;5088623;28;19921;-68
2023/01/17 16:06:55;;;;;;;;;;;19.40;43.40;;;;;;5068631;28;19921;-61